createdAt,value
2024-03-05T00:03:58.711Z,79.93
2024-03-05T00:09:01.659Z,79.27
2024-03-05T00:14:05.346Z,79.09
2024-03-05T00:19:09.679Z,78.63
2024-03-05T00:24:12.508Z,78.66
2024-03-05T00:29:17.126Z,78.32
2024-03-05T00:34:19.976Z,78.65
2024-03-05T00:39:22.876Z,78.73
2024-03-05T00:44:25.843Z,78.64
2024-03-05T00:49:30.423Z,79.73
2024-03-05T00:54:33.474Z,78.66
2024-03-05T00:59:36.662Z,78.66
2024-03-05T01:04:39.868Z,78.72
2024-03-05T01:09:42.802Z,79.35
2024-03-05T01:14:46.101Z,78.76
2024-03-05T01:19:49.323Z,79.28
2024-03-05T01:24:52.393Z,79.06
2024-03-05T01:29:55.425Z,78.76
2024-03-05T01:34:58.319Z,78.76
2024-03-05T01:40:01.361Z,79.18
2024-03-05T01:45:05.069Z,78.33
2024-03-05T01:50:10.631Z,79.37
2024-03-05T01:55:16.407Z,79.43
2024-03-05T02:00:21.973Z,78.83
2024-03-05T02:05:25.482Z,79.16
2024-03-05T02:10:28.714Z,80.12
2024-03-05T02:15:31.710Z,79.38
2024-03-05T02:20:35.124Z,78.76
2024-03-05T02:25:38.064Z,79.11
2024-03-05T02:30:41.510Z,78.99
2024-03-05T02:35:47.566Z,79.04
2024-03-05T02:40:50.383Z,79.85
2024-03-05T02:45:53.240Z,78.88
2024-03-05T02:50:56.441Z,79.29
2024-03-05T02:55:59.279Z,79.06
2024-03-05T03:01:03.314Z,78.66
2024-03-05T03:06:06.407Z,79.81
2024-03-05T03:11:09.910Z,79.79
2024-03-05T03:16:13.755Z,80.14
2024-03-05T03:21:17.155Z,79.26
2024-03-05T03:26:19.947Z,79.69
2024-03-05T03:31:26.910Z,80.20
2024-03-05T03:36:29.803Z,80.44
2024-03-05T03:41:32.688Z,80.71
2024-03-05T03:46:36.183Z,81.54
2024-03-05T03:51:39.831Z,81.21
2024-03-05T03:56:42.640Z,81.12
2024-03-05T04:01:50.956Z,81.10
2024-03-05T04:06:53.983Z,80.92
2024-03-05T04:11:56.992Z,80.86
2024-03-05T04:16:59.872Z,81.68
2024-03-05T04:22:03.485Z,81.51
2024-03-05T04:27:08.650Z,80.91
2024-03-05T04:32:11.646Z,81.20
2024-03-05T04:37:15.093Z,81.04
2024-03-05T04:42:18.039Z,81.97
2024-03-05T04:47:21.794Z,80.80
2024-03-05T04:52:24.743Z,81.26
2024-03-05T04:57:27.612Z,80.41
2024-03-05T05:02:30.436Z,80.53
2024-03-05T05:07:34.770Z,80.63
2024-03-05T05:12:40.660Z,80.30
2024-03-05T05:17:45.957Z,79.99
2024-03-05T05:22:49.126Z,80.38
2024-03-05T05:27:52.827Z,80.72
2024-03-05T05:32:56.248Z,80.62
2024-03-05T05:38:00.110Z,81.11
2024-03-05T05:43:03.027Z,80.96
2024-03-05T05:48:06.581Z,80.68
2024-03-05T05:53:10.015Z,80.53
2024-03-05T05:58:14.489Z,81.20
2024-03-05T06:03:18.177Z,81.50
2024-03-05T06:08:21.907Z,82.31
2024-03-05T06:13:25.683Z,82.84
2024-03-05T06:18:30.459Z,82.72
2024-03-05T06:23:33.443Z,84.17
2024-03-05T06:28:39.094Z,83.42
2024-03-05T06:33:42.170Z,84.13
2024-03-05T06:38:45.242Z,83.72
2024-03-05T06:43:49.092Z,83.80
2024-03-05T06:48:53.607Z,83.68
2024-03-05T06:54:15.027Z,83.43
2024-03-05T06:59:19.581Z,84.00
2024-03-05T07:04:22.528Z,83.27
2024-03-05T07:09:31.958Z,83.52
2024-03-05T07:14:34.979Z,83.96
2024-03-05T07:19:38.659Z,82.72
2024-03-05T07:24:42.069Z,83.06
2024-03-05T07:29:44.896Z,83.08
2024-03-05T07:34:47.840Z,82.78
2024-03-05T07:39:50.693Z,82.75
2024-03-05T07:44:53.513Z,83.24
2024-03-05T07:49:56.793Z,83.04
2024-03-05T07:54:59.980Z,82.88
2024-03-05T08:00:09.847Z,83.31
2024-03-05T08:05:22.918Z,83.83
2024-03-05T08:10:26.623Z,83.86
2024-03-05T08:15:29.913Z,83.92
2024-03-05T08:20:32.838Z,84.32
2024-03-05T08:25:36.137Z,84.11
2024-03-05T08:30:38.989Z,84.44
2024-03-05T08:35:41.872Z,83.52
2024-03-05T08:40:44.807Z,83.63
2024-03-05T08:45:47.944Z,82.41
2024-03-05T08:50:51.338Z,83.62
2024-03-05T08:55:54.121Z,82.21
2024-03-05T09:00:57.148Z,82.65
2024-03-05T09:05:59.974Z,82.76
2024-03-05T09:11:06.713Z,82.05
2024-03-05T09:16:10.839Z,82.20
2024-03-05T09:21:14.293Z,83.75
2024-03-05T09:26:17.470Z,82.15
2024-03-05T09:31:20.559Z,82.96
2024-03-05T09:36:24.629Z,82.28
2024-03-05T09:41:29.120Z,81.16
2024-03-05T09:46:33.047Z,81.88
2024-03-05T09:51:37.777Z,82.04
2024-03-05T09:56:46.835Z,83.25
2024-03-05T10:01:51.225Z,81.28
2024-03-05T10:06:54.681Z,82.60
2024-03-05T10:11:58.144Z,81.60
2024-03-05T10:17:02.484Z,80.46
2024-03-05T10:22:12.088Z,81.09
2024-03-05T10:27:28.907Z,80.44
2024-03-05T10:32:31.847Z,79.16
2024-03-05T10:37:34.845Z,78.43
2024-03-05T10:42:39.711Z,78.88
2024-03-05T10:47:44.170Z,77.83
2024-03-05T10:52:55.547Z,76.84
2024-03-05T10:58:15.200Z,78.08
2024-03-05T11:03:41.001Z,76.06
2024-03-05T11:08:46.234Z,76.47
2024-03-05T11:13:51.508Z,75.01
2024-03-05T11:18:54.645Z,75.40
2024-03-05T11:23:59.352Z,74.76
2024-03-05T11:29:31.619Z,72.75
2024-03-05T11:34:36.760Z,72.92
2024-03-05T11:39:47.660Z,71.58
2024-03-05T11:44:51.386Z,72.74
2024-03-05T11:49:54.621Z,71.76
2024-03-05T11:55:07.286Z,72.55
2024-03-05T12:00:23.280Z,72.90
2024-03-05T12:05:31.089Z,73.43
2024-03-05T12:10:40.365Z,72.90
2024-03-05T12:15:43.324Z,72.77
2024-03-05T12:20:47.484Z,73.35
2024-03-05T12:25:50.486Z,72.07
2024-03-05T12:30:54.853Z,72.68
2024-03-05T12:35:59.761Z,70.93
2024-03-05T12:41:02.903Z,68.49
2024-03-05T12:46:05.844Z,69.23
2024-03-05T12:51:10.630Z,68.27
2024-03-05T12:56:17.095Z,68.61
2024-03-05T13:01:20.609Z,68.71
2024-03-05T13:06:23.590Z,67.60
2024-03-05T13:11:26.986Z,68.43
2024-03-05T13:16:30.735Z,67.84
2024-03-05T13:21:35.151Z,64.20
2024-03-05T13:26:49.078Z,63.32
2024-03-05T13:31:52.238Z,65.30
2024-03-05T13:36:55.339Z,67.02
2024-03-05T13:41:58.403Z,65.47
2024-03-05T13:47:01.620Z,64.82
2024-03-05T13:52:04.841Z,63.23
2024-03-05T13:57:08.870Z,62.99
2024-03-05T14:02:12.018Z,63.64
2024-03-05T14:07:16.580Z,63.62
2024-03-05T14:12:19.504Z,63.03
2024-03-05T14:17:22.938Z,64.76
2024-03-05T14:22:25.760Z,63.11
2024-03-05T14:27:28.730Z,63.86
2024-03-05T14:32:32.020Z,62.84
2024-03-05T14:37:35.007Z,63.62
2024-03-05T14:42:40.631Z,62.02
2024-03-05T14:47:45.277Z,61.56
2024-03-05T14:52:48.241Z,60.36
2024-03-05T14:57:51.544Z,61.04
2024-03-05T15:02:55.233Z,58.92
2024-03-05T15:07:58.645Z,59.79
2024-03-05T15:13:01.817Z,62.14
2024-03-05T15:18:06.634Z,60.65
2024-03-05T15:23:11.480Z,59.96
2024-03-05T15:28:14.545Z,60.90
2024-03-05T15:33:17.953Z,63.42
2024-03-05T15:38:21.862Z,61.10
2024-03-05T15:43:25.016Z,61.32
2024-03-05T15:48:28.003Z,62.46
2024-03-05T15:53:31.320Z,62.69
2024-03-05T15:58:43.653Z,61.63
2024-03-05T16:08:54.442Z,64.92
2024-03-05T16:13:57.349Z,64.79
2024-03-05T16:19:00.229Z,64.32
2024-03-05T16:24:03.722Z,63.18
2024-03-05T16:29:07.922Z,64.63
2024-03-05T16:34:13.401Z,65.56
2024-03-05T16:39:19.826Z,66.95
2024-03-05T16:44:23.800Z,66.76
2024-03-05T16:49:27.295Z,65.45
2024-03-05T16:54:30.128Z,64.50
2024-03-05T16:59:33.196Z,66.00
2024-03-05T17:04:36.226Z,67.16
2024-03-05T17:09:39.057Z,67.04
2024-03-05T17:14:44.166Z,68.89
2024-03-05T17:19:47.959Z,68.80
2024-03-05T17:24:52.073Z,67.78
2024-03-05T17:29:54.945Z,69.61
2024-03-05T17:35:00.848Z,67.47
2024-03-05T17:40:10.137Z,68.09
2024-03-05T17:45:15.401Z,68.26
2024-03-05T17:50:18.359Z,68.04
2024-03-05T17:55:22.057Z,69.82
2024-03-05T18:00:28.300Z,69.50
2024-03-05T18:05:31.801Z,68.44
2024-03-05T18:10:37.127Z,67.32
2024-03-05T18:15:40.377Z,68.57
2024-03-05T18:20:45.018Z,67.64
2024-03-05T18:25:49.426Z,68.00
2024-03-05T18:30:52.694Z,68.31
2024-03-05T18:35:57.602Z,68.20
2024-03-05T18:41:02.212Z,68.01
2024-03-05T18:46:07.080Z,67.38
2024-03-05T18:51:10.946Z,69.10
2024-03-05T18:56:14.384Z,69.20
2024-03-05T19:01:17.664Z,68.54
2024-03-05T19:06:24.123Z,69.21
2024-03-05T19:11:28.166Z,69.16
2024-03-05T19:16:31.486Z,70.21
2024-03-05T19:21:34.386Z,70.29
2024-03-05T19:26:37.185Z,69.87
2024-03-05T19:31:45.954Z,70.14
2024-03-05T19:36:48.817Z,70.32
2024-03-05T19:41:52.327Z,71.46
2024-03-05T19:46:55.225Z,71.42
2024-03-05T19:51:59.624Z,71.90
2024-03-05T19:57:04.356Z,72.15
2024-03-05T20:02:07.661Z,72.57
2024-03-05T20:07:13.349Z,73.10
2024-03-05T20:12:16.485Z,73.54
2024-03-05T20:17:23.220Z,73.40
2024-03-05T20:22:29.299Z,73.80
2024-03-05T20:27:32.481Z,74.88
2024-03-05T20:32:35.300Z,76.10
2024-03-05T20:37:38.108Z,76.55
2024-03-05T20:42:45.000Z,77.21
2024-03-05T20:47:49.346Z,77.55
2024-03-05T20:52:52.367Z,78.28
2024-03-05T20:57:55.421Z,78.19
2024-03-05T21:02:58.666Z,78.94
2024-03-05T21:08:01.558Z,78.76
2024-03-05T21:13:05.015Z,78.70
2024-03-05T21:18:10.940Z,78.92
2024-03-05T21:23:16.741Z,78.66
2024-03-05T21:28:21.079Z,79.01
2024-03-05T21:33:25.330Z,79.86
2024-03-05T21:38:28.900Z,79.77
2024-03-05T21:43:31.703Z,80.10
2024-03-05T21:48:35.060Z,80.14
2024-03-05T21:53:37.927Z,81.71
2024-03-05T21:58:43.388Z,81.12
2024-03-05T22:03:46.386Z,80.25
2024-03-05T22:08:50.056Z,80.79
2024-03-05T22:13:52.986Z,78.58
2024-03-05T22:18:55.946Z,79.05
2024-03-05T22:23:59.914Z,80.29
2024-03-05T22:29:04.155Z,80.77
2024-03-05T22:34:06.976Z,80.49
2024-03-05T22:39:09.869Z,79.73
2024-03-05T22:44:12.843Z,81.97
2024-03-05T22:49:15.881Z,81.50
2024-03-05T22:54:18.752Z,81.62
2024-03-05T22:59:21.641Z,80.95
2024-03-05T23:04:24.476Z,81.50
2024-03-05T23:09:27.385Z,80.24
2024-03-05T23:14:31.908Z,79.86
2024-03-05T23:19:34.743Z,82.59
2024-03-05T23:24:37.629Z,82.35
2024-03-05T23:29:41.511Z,81.83
2024-03-05T23:34:44.417Z,80.78
2024-03-05T23:39:47.209Z,81.50
2024-03-05T23:44:50.132Z,81.45
2024-03-05T23:49:53.924Z,81.84
2024-03-05T23:55:00.206Z,81.54
